Airport METAR Information

LTBA 181650Z 02020KT 6000 -RA BKN009 OVC021 09/07 Q1016 NOSIG

VATSIM Livefeed

Card image cap

ATC Bookings

No position booked

Card image cap

Active ATC

Sector Full Name Rating Frequency
LTBA_TWR Nihat Ozsengezer S1 125.900
LTBA_ATIS Nihat Ozsengezer S1 128.200

Blog

Read our latest news and get to know us better.